Time;durP1;ratioP1;P1;durP2;ratioP2;P2;SDS_P1;SDS_P2;PMS_P1;PMS_P2;Temp;Humidity;BMP_temperature;BMP_pressure;BME280_temperature;BME280_humidity;BME280_pressure;Samples;Min_cycle;Max_cycle;Signal;HPM_P1;HPM_P2
2020/12/03 00:01:11;;;;;;;38.47;16.90;;;4.60;68.40;;;;;;5034186;28;20109;-70
2020/12/03 00:03:50;;;;;;;40.35;18.40;;;4.60;68.50;;;;;;5044795;28;20059;-72
2020/12/03 00:06:29;;;;;;;42.92;19.30;;;4.60;68.70;;;;;;5036013;28;20061;-70
2020/12/03 00:09:01;;;;;;;39.53;17.08;;;4.70;68.80;;;;;;5052804;28;20056;-70
2020/12/03 00:11:32;;;;;;;35.83;17.48;;;4.80;68.80;;;;;;5054625;28;20421;-70
2020/12/03 00:13:58;;;;;;;35.60;17.10;;;4.80;68.50;;;;;;5055897;28;20067;-70
2020/12/03 00:16:29;;;;;;;40.28;18.45;;;4.80;68.50;;;;;;5055957;28;20052;-72
2020/12/03 00:18:55;;;;;;;33.10;16.95;;;4.80;68.10;;;;;;5056221;28;20025;-70
2020/12/03 00:21:38;;;;;;;35.47;18.17;;;4.80;68.00;;;;;;5055307;28;20475;-70
2020/12/03 00:24:08;;;;;;;36.28;17.23;;;4.80;68.20;;;;;;5055592;28;20060;-70
2020/12/03 00:26:34;;;;;;;36.03;17.90;;;4.80;68.20;;;;;;5055421;28;20021;-70
2020/12/03 00:29:00;;;;;;;41.20;18.30;;;4.80;68.20;;;;;;5055006;28;20082;-70
2020/12/03 00:31:27;;;;;;;33.17;16.67;;;4.80;68.00;;;;;;5035775;28;20376;-69
2020/12/03 00:33:54;;;;;;;38.20;17.75;;;4.80;68.10;;;;;;5035164;28;20029;-69
2020/12/03 00:36:20;;;;;;;39.47;17.88;;;4.80;67.90;;;;;;5035363;28;20029;-69
2020/12/03 00:38:47;;;;;;;38.05;18.05;;;4.80;68.20;;;;;;5041724;28;20024;-71
2020/12/03 00:41:14;;;;;;;38.05;18.15;;;4.80;68.40;;;;;;5054099;28;20028;-71
2020/12/03 00:43:40;;;;;;;37.30;17.40;;;4.80;68.60;;;;;;5054909;28;20452;-71
2020/12/03 00:46:06;;;;;;;37.88;18.10;;;4.90;68.80;;;;;;5054126;28;20120;-69
2020/12/03 00:48:32;;;;;;;39.83;18.20;;;5.00;68.70;;;;;;5055335;28;20474;-71
2020/12/03 00:50:57;;;;;;;37.83;18.95;;;5.10;68.70;;;;;;5054996;28;20126;-70
2020/12/03 00:53:23;;;;;;;37.75;19.10;;;5.10;68.50;;;;;;5054071;28;20021;-71
2020/12/03 00:55:48;;;;;;;42.08;19.35;;;5.10;68.10;;;;;;5054721;28;20365;-70
2020/12/03 00:58:15;;;;;;;34.45;16.05;;;5.10;67.80;;;;;;5054401;28;20419;-70
2020/12/03 01:00:40;;;;;;;29.58;14.90;;;5.10;68.00;;;;;;5054860;28;20029;-70
2020/12/03 01:03:07;;;;;;;31.70;16.15;;;5.10;67.40;;;;;;5054890;28;20101;-71
2020/12/03 01:05:32;;;;;;;30.40;15.00;;;5.10;67.50;;;;;;5054118;28;20025;-70
2020/12/03 01:07:58;;;;;;;27.55;14.55;;;5.00;67.40;;;;;;5054857;28;20176;-70
2020/12/03 01:10:27;;;;;;;25.80;13.98;;;5.00;67.20;;;;;;5054956;28;20025;-70
2020/12/03 01:12:53;;;;;;;24.88;13.68;;;4.90;66.60;;;;;;5053504;28;20123;-70
2020/12/03 01:15:19;;;;;;;26.25;14.13;;;4.80;66.40;;;;;;5054991;28;20097;-70
2020/12/03 01:17:45;;;;;;;27.30;14.93;;;4.70;66.40;;;;;;5054360;28;20453;-70
2020/12/03 01:20:14;;;;;;;26.30;14.75;;;4.60;66.60;;;;;;5054514;28;20467;-70
2020/12/03 01:22:40;;;;;;;24.02;13.82;;;4.50;66.70;;;;;;5054338;28;20115;-69
2020/12/03 01:25:07;;;;;;;28.83;14.30;;;4.50;66.90;;;;;;5054860;28;20059;-69
2020/12/03 01:27:33;;;;;;;30.27;16.42;;;4.40;67.10;;;;;;5054696;28;20075;-70
2020/12/03 01:29:58;;;;;;;30.92;15.98;;;4.40;67.20;;;;;;5043037;28;20041;-70
2020/12/03 01:32:24;;;;;;;34.30;16.65;;;4.40;67.20;;;;;;5034669;28;20041;-69
2020/12/03 01:34:50;;;;;;;32.15;16.58;;;4.40;67.40;;;;;;5033471;28;20022;-69
2020/12/03 01:37:17;;;;;;;33.03;17.73;;;4.40;67.70;;;;;;5034695;28;20025;-70
2020/12/03 01:39:44;;;;;;;34.55;16.48;;;4.40;67.80;;;;;;5034388;28;20018;-70
2020/12/03 01:42:11;;;;;;;27.73;15.27;;;4.40;68.00;;;;;;5034405;28;20028;-70
2020/12/03 01:44:47;;;;;;;28.80;15.38;;;4.50;68.00;;;;;;5033089;28;20026;-70
2020/12/03 01:47:19;;;;;;;31.98;15.50;;;4.50;67.80;;;;;;5033318;28;20056;-70
2020/12/03 01:49:45;;;;;;;25.90;14.13;;;4.50;67.90;;;;;;5034130;28;20022;-70
2020/12/03 01:52:12;;;;;;;28.73;14.07;;;4.50;67.70;;;;;;5034069;28;20029;-70
2020/12/03 01:54:38;;;;;;;29.73;14.63;;;4.50;67.50;;;;;;5033765;28;20034;-71
2020/12/03 01:57:04;;;;;;;27.08;14.57;;;4.50;67.50;;;;;;5033963;28;20025;-70
2020/12/03 01:59:43;;;;;;;23.98;14.38;;;4.50;67.50;;;;;;5033827;28;20021;-71
2020/12/03 02:02:13;;;;;;;29.40;15.65;;;4.50;67.60;;;;;;5034094;28;20109;-70
2020/12/03 02:04:39;;;;;;;27.95;15.52;;;4.40;67.30;;;;;;5033956;28;20080;-70
2020/12/03 02:07:11;;;;;;;27.67;14.60;;;4.40;67.30;;;;;;5033970;28;20523;-70
2020/12/03 02:09:38;;;;;;;26.33;15.27;;;4.30;67.30;;;;;;5031524;28;20025;-69
2020/12/03 02:12:04;;;;;;;31.88;15.75;;;4.30;67.20;;;;;;5033987;28;20044;-69
2020/12/03 02:14:30;;;;;;;27.58;15.70;;;4.30;67.60;;;;;;5033872;28;20075;-70
2020/12/03 02:16:56;;;;;;;28.23;16.08;;;4.20;67.60;;;;;;5033499;28;20025;-70
2020/12/03 02:19:26;;;;;;;28.83;15.25;;;4.20;67.50;;;;;;5034151;28;20032;-69
2020/12/03 02:22:04;;;;;;;32.35;16.63;;;4.20;67.60;;;;;;5033597;28;20484;-70
2020/12/03 02:24:36;;;;;;;31.40;15.80;;;4.20;67.60;;;;;;5033760;28;20025;-69
2020/12/03 02:27:03;;;;;;;34.08;16.73;;;4.10;67.50;;;;;;5033651;28;20026;-69
2020/12/03 02:29:29;;;;;;;29.48;15.88;;;4.10;67.90;;;;;;5033943;28;20045;-68
2020/12/03 02:31:55;;;;;;;36.15;18.23;;;4.10;68.00;;;;;;5033601;28;20026;-70
2020/12/03 02:34:20;;;;;;;34.92;18.83;;;4.20;67.90;;;;;;5033646;28;20029;-69
2020/12/03 02:36:57;;;;;;;42.65;19.35;;;4.10;67.70;;;;;;5033220;28;20381;-70
2020/12/03 02:39:24;;;;;;;37.45;19.63;;;4.10;67.60;;;;;;5033559;28;20044;-70
2020/12/03 02:41:50;;;;;;;46.33;21.17;;;4.00;67.60;;;;;;5032130;28;20021;-70
2020/12/03 02:44:16;;;;;;;38.65;20.52;;;4.00;68.10;;;;;;5033476;28;20017;-69
2020/12/03 02:46:42;;;;;;;41.90;19.38;;;4.00;68.30;;;;;;5033137;28;20053;-69
2020/12/03 02:49:10;;;;;;;41.35;18.95;;;4.00;68.50;;;;;;5033923;28;20076;-69
2020/12/03 02:51:37;;;;;;;49.75;20.63;;;4.10;68.40;;;;;;5033223;28;20056;-70
2020/12/03 02:54:02;;;;;;;36.85;18.52;;;4.10;68.70;;;;;;5032997;28;20052;-69
2020/12/03 02:56:28;;;;;;;37.65;18.80;;;4.10;68.60;;;;;;5033015;28;20022;-70
2020/12/03 02:58:54;;;;;;;44.47;19.00;;;4.20;68.10;;;;;;5032969;28;20100;-70
2020/12/03 03:01:19;;;;;;;37.65;19.20;;;4.10;67.90;;;;;;5033463;28;20403;-69
2020/12/03 03:03:45;;;;;;;43.58;19.73;;;4.10;68.10;;;;;;5033453;28;20504;-69
2020/12/03 03:06:11;;;;;;;41.28;19.25;;;4.10;68.40;;;;;;5032999;28;20048;-70
2020/12/03 03:08:37;;;;;;;38.83;18.33;;;4.10;68.50;;;;;;5032992;28;20028;-70
2020/12/03 03:11:02;;;;;;;44.97;19.83;;;4.10;68.30;;;;;;5033131;28;20036;-69
2020/12/03 03:13:28;;;;;;;41.95;19.40;;;4.10;68.20;;;;;;5031914;28;20028;-70
2020/12/03 03:15:54;;;;;;;38.78;19.08;;;4.10;68.50;;;;;;5033053;28;20361;-69
2020/12/03 03:18:21;;;;;;;38.03;18.67;;;4.00;68.20;;;;;;5033450;28;20013;-70
2020/12/03 03:20:47;;;;;;;39.60;18.10;;;4.00;68.30;;;;;;5034511;28;20024;-70
2020/12/03 03:23:14;;;;;;;42.15;19.55;;;3.90;68.60;;;;;;5045154;28;20036;-70
2020/12/03 03:25:39;;;;;;;40.08;18.80;;;3.90;68.80;;;;;;5036901;28;20033;-70
2020/12/03 03:28:05;;;;;;;39.97;20.50;;;4.00;69.00;;;;;;5036546;28;20032;-70
2020/12/03 03:30:31;;;;;;;39.25;18.38;;;4.00;69.20;;;;;;5036980;28;20045;-70
2020/12/03 03:32:56;;;;;;;40.60;19.90;;;4.00;69.20;;;;;;5036474;28;20029;-70
2020/12/03 03:35:22;;;;;;;44.83;20.92;;;4.10;69.10;;;;;;5036632;28;20021;-70
2020/12/03 03:37:48;;;;;;;45.13;20.08;;;4.10;69.40;;;;;;5036676;28;20029;-69
2020/12/03 03:40:14;;;;;;;43.97;20.63;;;4.10;69.40;;;;;;5038333;28;20446;-69
2020/12/03 03:42:41;;;;;;;38.08;19.42;;;4.10;69.30;;;;;;5056675;28;20111;-70
2020/12/03 03:45:09;;;;;;;50.25;22.10;;;4.20;69.50;;;;;;5056930;28;20055;-70
2020/12/03 03:47:34;;;;;;;42.28;19.90;;;4.20;69.10;;;;;;5056546;28;20065;-70
2020/12/03 03:50:00;;;;;;;47.97;21.20;;;4.20;69.00;;;;;;5056274;28;20139;-70
2020/12/03 03:52:26;;;;;;;46.45;20.75;;;4.20;69.10;;;;;;5056091;28;20036;-70
2020/12/03 03:54:52;;;;;;;44.10;21.92;;;4.20;69.20;;;;;;5056358;28;20032;-70
2020/12/03 03:57:17;;;;;;;47.53;20.25;;;4.20;69.50;;;;;;5056380;28;20103;-70
2020/12/03 03:59:48;;;;;;;50.70;22.67;;;4.30;69.30;;;;;;5056103;28;20048;-72
2020/12/03 04:02:18;;;;;;;48.63;20.17;;;4.20;69.20;;;;;;5055906;28;20487;-70
2020/12/03 04:04:43;;;;;;;48.67;21.45;;;4.20;69.10;;;;;;5055903;28;20025;-70
2020/12/03 04:07:09;;;;;;;47.28;22.13;;;4.20;68.80;;;;;;5053704;28;20025;-70
2020/12/03 04:09:35;;;;;;;48.00;21.90;;;4.10;69.40;;;;;;5036513;28;20035;-71
2020/12/03 04:12:00;;;;;;;52.03;23.33;;;4.10;69.00;;;;;;5035792;28;20037;-70
2020/12/03 04:14:26;;;;;;;55.88;23.40;;;4.00;69.00;;;;;;5034925;28;20025;-70
2020/12/03 04:16:52;;;;;;;59.10;23.40;;;3.90;69.30;;;;;;5034718;28;20484;-70
2020/12/03 04:19:17;;;;;;;49.88;22.40;;;3.90;69.70;;;;;;5035846;28;20104;-70
2020/12/03 04:21:43;;;;;;;47.42;20.73;;;3.90;69.60;;;;;;5036064;28;20025;-71
2020/12/03 04:24:09;;;;;;;47.13;20.67;;;3.90;69.50;;;;;;5035886;28;20013;-70
2020/12/03 04:26:34;;;;;;;46.35;20.60;;;3.90;69.40;;;;;;5034671;28;20048;-70
2020/12/03 04:29:00;;;;;;;46.63;20.40;;;3.90;69.60;;;;;;5035735;28;20029;-69
2020/12/03 04:31:26;;;;;;;52.50;21.05;;;3.90;69.80;;;;;;5034795;28;20038;-70
2020/12/03 04:33:52;;;;;;;46.30;22.65;;;3.90;69.90;;;;;;5034397;28;20075;-69
2020/12/03 04:36:17;;;;;;;47.97;21.15;;;4.00;69.70;;;;;;5035735;28;20048;-70
2020/12/03 04:38:43;;;;;;;53.63;22.05;;;4.00;69.60;;;;;;5034475;28;20021;-70
2020/12/03 04:41:09;;;;;;;56.33;23.23;;;4.00;69.70;;;;;;5035537;28;20443;-70
2020/12/03 04:43:40;;;;;;;55.13;23.33;;;4.10;69.60;;;;;;5035643;28;20048;-69
2020/12/03 04:46:29;;;;;;;54.35;23.05;;;4.10;69.50;;;;;;5035700;28;20021;-70
2020/12/03 04:49:25;;;;;;;54.65;22.88;;;4.00;69.70;;;;;;5035251;28;20124;-71
2020/12/03 04:51:57;;;;;;;57.13;23.23;;;4.10;69.20;;;;;;5035148;28;20465;-71
2020/12/03 04:54:38;;;;;;;54.67;24.25;;;4.00;68.70;;;;;;5035354;28;20049;-70
2020/12/03 04:57:50;;;;;;;56.15;24.30;;;3.90;69.00;;;;;;5034974;28;20302;-70
2020/12/03 05:00:34;;;;;;;52.45;22.77;;;3.80;69.40;;;;;;4993547;28;20104;-70
2020/12/03 05:03:11;;;;;;;50.17;23.63;;;3.90;69.60;;;;;;5034313;28;20069;-69
2020/12/03 05:06:09;;;;;;;58.53;26.08;;;3.90;69.60;;;;;;5033784;28;20765;-71
2020/12/03 05:08:47;;;;;;;54.97;25.75;;;3.90;69.70;;;;;;5034620;28;20148;-70
2020/12/03 05:11:36;;;;;;;50.00;24.90;;;4.10;69.70;;;;;;5033650;28;20343;-70
2020/12/03 05:14:13;;;;;;;56.47;23.90;;;4.10;69.60;;;;;;5005100;28;20033;-71
2020/12/03 05:16:52;;;;;;;43.38;19.98;;;4.20;69.70;;;;;;5055031;28;20086;-70
2020/12/03 05:19:59;;;;;;;46.95;23.48;;;4.20;69.20;;;;;;5054565;28;20036;-69
2020/12/03 05:22:26;;;;;;;48.70;21.63;;;4.20;68.70;;;;;;5051543;28;20045;-70
2020/12/03 05:24:52;;;;;;;47.30;20.40;;;4.10;68.70;;;;;;5042128;28;20029;-70
2020/12/03 05:27:28;;;;;;;53.08;21.75;;;4.00;68.80;;;;;;5053358;28;20028;-70
2020/12/03 05:30:08;;;;;;;52.63;22.38;;;4.00;69.10;;;;;;5047202;28;20080;-71
2020/12/03 05:32:36;;;;;;;57.67;24.85;;;4.00;69.10;;;;;;5033626;28;20029;-70
2020/12/03 05:35:03;;;;;;;57.55;25.92;;;4.00;69.10;;;;;;5034290;28;20022;-71
2020/12/03 05:37:33;;;;;;;57.95;25.77;;;4.10;69.30;;;;;;5034212;28;20021;-70
2020/12/03 05:39:59;;;;;;;62.67;26.77;;;4.10;69.30;;;;;;5034353;28;20056;-71
2020/12/03 05:42:30;;;;;;;52.15;23.85;;;4.10;69.10;;;;;;5036436;28;20474;-71
2020/12/03 05:45:07;;;;;;;54.85;23.33;;;4.10;69.00;;;;;;5032911;28;20112;-70
2020/12/03 05:47:36;;;;;;;45.17;20.17;;;4.00;69.00;;;;;;5034214;28;20100;-70
2020/12/03 05:50:36;;;;;;;47.97;20.15;;;4.00;69.30;;;;;;5034029;28;20096;-71
2020/12/03 05:53:17;;;;;;;53.20;23.27;;;4.10;69.30;;;;;;5031556;28;20048;-70
2020/12/03 05:55:44;;;;;;;57.35;22.50;;;4.10;69.20;;;;;;5034267;28;20469;-70
2020/12/03 05:58:32;;;;;;;46.38;20.38;;;4.10;69.10;;;;;;5032673;28;20048;-70
2020/12/03 06:01:13;;;;;;;57.25;23.83;;;4.10;69.00;;;;;;5033826;28;20087;-70
2020/12/03 06:03:59;;;;;;;58.53;24.38;;;4.20;69.10;;;;;;5033548;28;20088;-71
2020/12/03 06:06:40;;;;;;;56.20;24.60;;;4.20;68.80;;;;;;5033870;28;20103;-71
2020/12/03 06:09:33;;;;;;;49.58;23.02;;;4.10;68.80;;;;;;5033769;28;20345;-71
2020/12/03 06:12:18;;;;;;;60.83;22.75;;;4.20;69.00;;;;;;5033787;28;20108;-70
2020/12/03 06:15:07;;;;;;;61.35;23.40;;;4.20;68.80;;;;;;5033925;28;20071;-71
2020/12/03 06:17:48;;;;;;;58.17;23.83;;;4.20;68.50;;;;;;5033497;28;20465;-70
2020/12/03 06:20:52;;;;;;;56.97;23.38;;;4.10;68.40;;;;;;5033994;28;20022;-70
2020/12/03 06:23:47;;;;;;;65.07;25.17;;;4.10;68.80;;;;;;5033654;28;20021;-70
2020/12/03 06:26:13;;;;;;;63.35;26.25;;;4.10;69.20;;;;;;5038151;28;20107;-71
2020/12/03 06:29:05;;;;;;;63.45;25.27;;;4.10;69.10;;;;;;5041665;28;20109;-71
2020/12/03 06:31:55;;;;;;;63.95;26.25;;;4.10;68.90;;;;;;5039737;28;20133;-71
2020/12/03 06:34:30;;;;;;;64.63;25.80;;;4.10;68.80;;;;;;5043803;28;20361;-71
2020/12/03 06:36:59;;;;;;;63.42;25.70;;;4.10;68.80;;;;;;5040973;28;20396;-71
2020/12/03 06:39:39;;;;;;;71.95;25.38;;;4.00;68.70;;;;;;5040460;28;20143;-71
2020/12/03 06:42:10;;;;;;;54.05;23.95;;;4.00;69.30;;;;;;5043445;28;20056;-70
2020/12/03 06:44:53;;;;;;;70.43;25.60;;;4.10;69.50;;;;;;5043644;28;20100;-71
2020/12/03 06:47:56;;;;;;;59.42;24.30;;;4.10;69.40;;;;;;5036921;28;20048;-74
2020/12/03 06:50:54;;;;;;;60.20;25.35;;;4.10;69.40;;;;;;5032925;28;20041;-71
2020/12/03 06:53:26;;;;;;;63.95;23.85;;;4.20;69.50;;;;;;5032180;28;20474;-71
2020/12/03 06:56:17;;;;;;;59.25;24.38;;;4.20;69.10;;;;;;5031538;28;20556;-70
2020/12/03 06:59:20;;;;;;;60.80;24.00;;;4.20;68.80;;;;;;5033026;28;20026;-71
2020/12/03 07:01:46;;;;;;;63.30;24.75;;;4.20;68.80;;;;;;5033111;28;20029;-72
2020/12/03 07:04:40;;;;;;;58.30;23.48;;;4.10;69.00;;;;;;5031869;28;20033;-69
2020/12/03 07:07:20;;;;;;;61.58;25.52;;;4.20;69.00;;;;;;5032895;28;20021;-71
2020/12/03 07:10:25;;;;;;;63.33;24.95;;;4.10;68.70;;;;;;5033112;28;20022;-73
2020/12/03 07:13:12;;;;;;;59.28;25.45;;;4.10;68.90;;;;;;5033236;28;20026;-70
2020/12/03 07:15:59;;;;;;;65.00;25.52;;;4.10;69.00;;;;;;5032616;28;20040;-70
2020/12/03 07:18:40;;;;;;;65.10;24.77;;;4.00;69.10;;;;;;5032793;28;20025;-70
2020/12/03 07:21:42;;;;;;;67.20;24.92;;;4.00;69.40;;;;;;5032637;28;20029;-71
2020/12/03 07:24:26;;;;;;;62.83;24.30;;;4.10;69.40;;;;;;5033026;28;20112;-71
2020/12/03 07:26:54;;;;;;;67.38;24.92;;;4.10;69.60;;;;;;5031705;28;20021;-70
2020/12/03 07:29:34;;;;;;;52.72;23.00;;;4.10;69.70;;;;;;5032212;28;20021;-74
2020/12/03 07:32:03;;;;;;;62.47;25.92;;;4.20;69.50;;;;;;5032353;28;20029;-72
2020/12/03 07:34:42;;;;;;;58.65;24.70;;;4.30;69.10;;;;;;5032523;28;20369;-72
2020/12/03 07:37:46;;;;;;;60.00;25.00;;;4.30;69.60;;;;;;5031837;28;20033;-70
2020/12/03 07:40:18;;;;;;;67.03;26.23;;;4.30;68.70;;;;;;5010695;28;20030;-73
2020/12/03 07:42:45;;;;;;;58.60;23.75;;;4.30;68.60;;;;;;5028958;28;20033;-74
2020/12/03 07:45:29;;;;;;;66.65;26.27;;;4.40;68.60;;;;;;5032690;28;20101;-70
2020/12/03 07:48:15;;;;;;;64.15;23.85;;;4.30;68.30;;;;;;5032995;28;20472;-69
2020/12/03 07:50:44;;;;;;;65.45;26.67;;;4.40;68.40;;;;;;5032632;28;20159;-70
2020/12/03 07:53:24;;;;;;;61.35;24.40;;;4.40;68.20;;;;;;5032783;28;20124;-70
2020/12/03 07:55:50;;;;;;;60.50;25.40;;;4.40;68.30;;;;;;5031610;28;20443;-71
2020/12/03 07:58:30;;;;;;;63.08;26.23;;;4.40;68.20;;;;;;5032714;28;20152;-68
2020/12/03 08:00:56;;;;;;;70.13;26.02;;;4.40;68.20;;;;;;5032501;28;20025;-69
2020/12/03 08:03:41;;;;;;;67.50;25.17;;;4.40;68.00;;;;;;5032637;28;20025;-70
2020/12/03 08:06:19;;;;;;;66.78;24.90;;;4.40;68.10;;;;;;5034395;28;20026;-69
2020/12/03 08:09:00;;;;;;;69.05;26.98;;;4.40;68.50;;;;;;5034903;28;20029;-70
2020/12/03 08:14:54;;;;;;;72.72;28.48;;;4.50;68.30;;;;;;5056057;28;20075;-70
2020/12/03 08:17:22;;;;;;;60.60;24.20;;;4.50;68.20;;;;;;5055535;28;20456;-68
2020/12/03 08:20:03;;;;;;;64.63;25.63;;;4.50;68.30;;;;;;5055342;28;20471;-69
2020/12/03 08:22:36;;;;;;;70.15;25.38;;;4.60;68.00;;;;;;5055762;28;20039;-70
2020/12/03 08:25:15;;;;;;;65.55;27.67;;;4.60;67.90;;;;;;5054440;28;20032;-71
2020/12/03 08:27:42;;;;;;;63.58;26.15;;;4.60;68.20;;;;;;5055771;28;20024;-70
2020/12/03 08:33:11;;;;;;;68.55;26.45;;;4.70;68.30;;;;;;5035525;28;20385;-71
2020/12/03 08:35:40;;;;;;;71.32;28.10;;;4.70;68.00;;;;;;5035422;28;20025;-70
2020/12/03 08:38:07;;;;;;;71.13;28.55;;;4.70;67.90;;;;;;5034320;28;20037;-72
2020/12/03 08:40:36;;;;;;;68.40;27.58;;;4.80;68.20;;;;;;5034121;28;20025;-70
2020/12/03 08:43:09;;;;;;;71.72;27.30;;;4.80;67.70;;;;;;5035504;28;20022;-70
2020/12/03 08:46:12;;;;;;;69.93;27.67;;;4.80;67.70;;;;;;5035725;28;20026;-70
2020/12/03 08:48:30;;;;;;;72.15;26.85;;;4.80;67.50;;;;;;5034878;28;20045;-69
2020/12/03 08:50:57;;;;;;;71.07;28.33;;;4.80;67.50;;;;;;5034071;28;20022;-70
2020/12/03 08:53:25;;;;;;;72.82;28.17;;;4.80;67.60;;;;;;5035163;28;20380;-69
2020/12/03 08:55:51;;;;;;;76.10;27.63;;;4.70;67.70;;;;;;5035225;28;20373;-69
2020/12/03 08:58:20;;;;;;;76.85;28.75;;;4.80;68.00;;;;;;5035263;28;20025;-69
2020/12/03 09:00:47;;;;;;;66.28;24.90;;;4.90;68.10;;;;;;5035074;28;20022;-69
2020/12/03 09:03:14;;;;;;;72.40;27.38;;;4.90;67.80;;;;;;5034827;28;20021;-71
2020/12/03 09:05:44;;;;;;;67.30;26.70;;;5.00;68.10;;;;;;5038158;28;20033;-70
2020/12/03 09:08:17;;;;;;;73.47;28.35;;;5.20;68.40;;;;;;5054894;28;20033;-69
2020/12/03 09:10:43;;;;;;;67.47;27.92;;;5.40;68.30;;;;;;5054371;28;20021;-70
2020/12/03 09:13:09;;;;;;;64.57;27.20;;;5.60;67.70;;;;;;5054745;28;20408;-70
2020/12/03 09:15:36;;;;;;;61.08;25.52;;;5.80;67.10;;;;;;5049310;28;20025;-70
2020/12/03 09:18:05;;;;;;;64.60;26.55;;;5.80;66.10;;;;;;5034352;28;20100;-71
2020/12/03 09:20:31;;;;;;;61.05;26.98;;;5.80;66.00;;;;;;5034879;28;20113;-71
2020/12/03 09:22:56;;;;;;;64.32;25.90;;;5.80;66.00;;;;;;5033698;28;20108;-69
2020/12/03 09:25:22;;;;;;;57.00;24.90;;;5.80;65.50;;;;;;5034723;28;20025;-69
2020/12/03 09:27:49;;;;;;;62.17;24.92;;;5.80;65.40;;;;;;5034453;28;20402;-70
2020/12/03 09:30:23;;;;;;;57.40;25.15;;;5.80;65.30;;;;;;5034501;28;20045;-70
2020/12/03 09:32:56;;;;;;;55.58;22.70;;;5.80;65.40;;;;;;5034655;28;20038;-69
2020/12/03 09:35:24;;;;;;;67.65;27.92;;;5.90;65.50;;;;;;5034396;28;20408;-70
2020/12/03 09:37:54;;;;;;;60.08;25.85;;;5.90;65.20;;;;;;5033019;28;20026;-70
2020/12/03 09:40:20;;;;;;;59.80;27.15;;;5.90;65.30;;;;;;5042004;28;20027;-70
2020/12/03 09:42:49;;;;;;;62.22;25.63;;;6.00;65.60;;;;;;5053314;28;20485;-71
2020/12/03 09:45:22;;;;;;;58.70;26.60;;;6.20;65.10;;;;;;5054054;28;20025;-69
2020/12/03 09:47:50;;;;;;;61.17;25.83;;;6.20;64.00;;;;;;5054189;28;20075;-69
2020/12/03 09:50:16;;;;;;;61.40;27.02;;;6.10;63.90;;;;;;5053926;28;20158;-70
2020/12/03 09:52:43;;;;;;;52.50;25.00;;;6.00;64.60;;;;;;5053975;28;20108;-69
2020/12/03 09:55:09;;;;;;;57.45;23.67;;;6.10;64.60;;;;;;5053762;28;20082;-69
2020/12/03 09:57:35;;;;;;;63.75;27.27;;;6.20;64.00;;;;;;5053869;28;20021;-69
2020/12/03 10:00:04;;;;;;;57.45;26.80;;;6.20;63.70;;;;;;5054117;28;20025;-69
2020/12/03 10:03:04;;;;;;;74.85;32.53;;;6.20;63.80;;;;;;5049345;28;20036;-70
2020/12/03 10:05:40;;;;;;;64.03;27.95;;;6.20;63.80;;;;;;5042259;28;20476;-70
2020/12/03 10:08:33;;;;;;;67.07;30.42;;;6.20;64.00;;;;;;5038079;28;20028;-70
2020/12/03 10:11:46;;;;;;;71.60;30.70;;;6.20;63.90;;;;;;5043992;28;20017;-72
2020/12/03 10:14:12;;;;;;;78.43;30.20;;;6.10;63.50;;;;;;5031729;28;20033;-70
2020/12/03 10:16:41;;;;;;;58.25;25.05;;;6.00;63.50;;;;;;5042297;28;20107;-70
2020/12/03 10:19:10;;;;;;;65.40;28.35;;;5.90;63.30;;;;;;5052810;28;20035;-70
2020/12/03 10:21:42;;;;;;;72.28;28.27;;;5.80;63.40;;;;;;5053900;28;20365;-71
2020/12/03 10:24:33;;;;;;;83.40;32.17;;;5.70;63.80;;;;;;5053243;28;20439;-70
2020/12/03 10:27:20;;;;;;;70.75;26.98;;;5.60;64.00;;;;;;5053504;28;20444;-70
2020/12/03 10:30:20;;;;;;;71.10;25.63;;;5.50;63.90;;;;;;5052443;28;20095;-70
2020/12/03 10:32:49;;;;;;;65.50;27.50;;;5.40;64.30;;;;;;5053507;28;20040;-69
2020/12/03 10:35:15;;;;;;;73.43;28.88;;;5.40;64.80;;;;;;5053203;28;20017;-71
2020/12/03 10:37:47;;;;;;;80.68;31.67;;;5.50;64.90;;;;;;5053116;28;20037;-70
2020/12/03 10:40:18;;;;;;;76.75;29.50;;;5.50;65.00;;;;;;5051961;28;20362;-69
2020/12/03 10:42:49;;;;;;;74.63;29.80;;;5.50;65.10;;;;;;5053400;28;20376;-70
2020/12/03 10:45:22;;;;;;;74.28;31.02;;;5.60;65.10;;;;;;5050720;28;20408;-70
2020/12/03 10:48:00;;;;;;;83.68;32.72;;;5.60;64.90;;;;;;5053303;28;20449;-70
2020/12/03 10:51:03;;;;;;;81.03;35.88;;;5.60;65.10;;;;;;5052076;28;20461;-71
2020/12/03 10:53:30;;;;;;;85.30;33.05;;;5.50;64.90;;;;;;5030989;28;20041;-70
2020/12/03 10:55:57;;;;;;;77.85;34.60;;;5.60;65.40;;;;;;5053634;28;20021;-69
2020/12/03 10:59:00;;;;;;;64.30;25.25;;;5.60;65.30;;;;;;5052871;28;20044;-70
2020/12/03 11:01:31;;;;;;;71.97;26.95;;;5.60;65.30;;;;;;5052758;28;20056;-70
2020/12/03 11:04:04;;;;;;;65.65;25.52;;;5.70;64.90;;;;;;5053016;28;20025;-69
2020/12/03 11:06:32;;;;;;;78.95;27.38;;;5.60;64.50;;;;;;5052872;28;20420;-69
2020/12/03 11:09:01;;;;;;;76.30;28.58;;;5.50;64.60;;;;;;5052273;28;20032;-70
2020/12/03 11:11:37;;;;;;;80.95;29.42;;;5.50;64.60;;;;;;5051656;28;20057;-70
2020/12/03 11:14:10;;;;;;;87.30;35.70;;;5.30;64.60;;;;;;5052732;28;20512;-73
2020/12/03 11:16:43;;;;;;;82.80;31.40;;;5.30;65.10;;;;;;5052614;28;20067;-70
2020/12/03 11:19:15;;;;;;;104.75;38.97;;;5.20;65.20;;;;;;5052638;28;20466;-71
2020/12/03 11:21:55;;;;;;;90.35;36.67;;;5.20;65.50;;;;;;5053073;28;20029;-72
2020/12/03 11:24:41;;;;;;;82.97;36.47;;;5.20;65.50;;;;;;5047269;28;20070;-70
2020/12/03 11:27:09;;;;;;;75.50;28.85;;;5.10;65.10;;;;;;5041874;28;20488;-70
2020/12/03 11:29:36;;;;;;;72.22;28.50;;;5.10;65.20;;;;;;5042358;28;20021;-74
2020/12/03 11:32:03;;;;;;;66.57;24.98;;;5.10;65.70;;;;;;5041113;28;20022;-70
2020/12/03 11:34:37;;;;;;;59.30;24.25;;;5.00;65.40;;;;;;5041800;28;20095;-69
2020/12/03 11:37:03;;;;;;;68.80;26.37;;;4.90;65.30;;;;;;5040826;28;20117;-70
2020/12/03 11:39:31;;;;;;;73.97;28.40;;;4.80;65.30;;;;;;5041524;28;20017;-71
2020/12/03 11:48:00;;;;;;;70.20;25.33;;;4.70;66.30;;;;;;5049014;28;20041;-69
2020/12/03 11:50:23;;;;;;;71.95;26.20;;;4.70;66.40;;;;;;5039610;28;20500;-68
2020/12/03 11:52:50;;;;;;;66.70;27.17;;;4.70;66.40;;;;;;5044904;28;20461;-69
2020/12/03 11:55:25;;;;;;;66.40;26.10;;;4.70;66.60;;;;;;5044002;28;20013;-71
2020/12/03 11:57:51;;;;;;;62.58;25.10;;;4.80;66.70;;;;;;5045267;28;20361;-69
2020/12/03 12:00:21;;;;;;;61.38;23.23;;;4.80;66.30;;;;;;5037452;28;20037;-69
2020/12/03 12:02:51;;;;;;;60.80;24.15;;;4.80;66.40;;;;;;5035048;28;20033;-71
2020/12/03 12:09:43;;;;;;;59.50;22.52;;;4.80;66.30;;;;;;5035620;28;20108;-70
2020/12/03 12:12:09;;;;;;;67.28;25.67;;;4.70;66.30;;;;;;5035710;28;20511;-70
2020/12/03 12:14:34;;;;;;;57.42;22.33;;;4.70;66.50;;;;;;5036151;28;20018;-70
2020/12/03 12:17:00;;;;;;;58.05;24.08;;;4.70;66.40;;;;;;5035936;28;20017;-69
2020/12/03 12:19:27;;;;;;;63.35;25.63;;;4.70;66.30;;;;;;5052961;28;20480;-72
2020/12/03 12:21:56;;;;;;;67.38;25.98;;;4.70;66.70;;;;;;5052935;28;20024;-71
2020/12/03 12:24:21;;;;;;;58.08;26.20;;;4.70;66.50;;;;;;5055895;28;20024;-71
2020/12/03 12:26:48;;;;;;;61.72;26.10;;;4.70;66.50;;;;;;5056350;28;20025;-69
2020/12/03 12:29:13;;;;;;;62.33;26.55;;;4.70;66.20;;;;;;5055797;28;20025;-71
2020/12/03 12:31:39;;;;;;;66.88;27.52;;;4.70;66.40;;;;;;5055913;28;20477;-71
2020/12/03 12:34:05;;;;;;;64.47;28.20;;;4.70;67.00;;;;;;5055568;28;20027;-70
2020/12/03 12:36:30;;;;;;;57.00;25.27;;;4.70;66.40;;;;;;5037466;28;20453;-70
2020/12/03 12:38:56;;;;;;;63.97;25.67;;;4.70;66.30;;;;;;5036151;28;20028;-69
2020/12/03 12:41:22;;;;;;;64.43;26.13;;;4.60;66.30;;;;;;5035554;28;20021;-71
2020/12/03 12:43:47;;;;;;;70.72;27.63;;;4.60;66.30;;;;;;5036000;28;20488;-69
2020/12/03 12:46:19;;;;;;;61.75;25.33;;;4.60;66.50;;;;;;5035216;28;20064;-70
2020/12/03 12:48:45;;;;;;;63.88;25.60;;;4.60;66.70;;;;;;5035470;28;20022;-71
2020/12/03 12:51:11;;;;;;;60.17;24.95;;;4.60;66.70;;;;;;5049539;28;20326;-69
2020/12/03 12:53:36;;;;;;;62.05;24.42;;;4.60;66.70;;;;;;5053027;28;20100;-69
2020/12/03 12:56:02;;;;;;;65.45;25.98;;;4.70;66.70;;;;;;5055271;28;20028;-69
2020/12/03 12:58:28;;;;;;;63.10;25.42;;;4.70;66.80;;;;;;5055106;28;20025;-72
2020/12/03 13:00:53;;;;;;;59.75;24.27;;;4.70;67.00;;;;;;5055315;28;20361;-69
2020/12/03 13:03:19;;;;;;;74.18;28.55;;;4.80;67.10;;;;;;5050399;28;20025;-69
2020/12/03 13:05:45;;;;;;;69.70;25.77;;;4.80;67.20;;;;;;5035051;28;20435;-69
2020/12/03 13:08:10;;;;;;;57.38;24.13;;;4.90;67.10;;;;;;5035038;28;20022;-69
2020/12/03 13:10:36;;;;;;;73.30;26.23;;;4.90;67.10;;;;;;5034976;28;20466;-70
2020/12/03 13:13:02;;;;;;;67.03;25.83;;;4.90;66.80;;;;;;5032979;28;20025;-68
2020/12/03 13:15:28;;;;;;;71.65;26.15;;;4.80;66.60;;;;;;5034854;28;20056;-71
2020/12/03 13:17:53;;;;;;;67.32;27.45;;;4.70;66.90;;;;;;5035442;28;20047;-70